KIPT/IPT METAR and TAF weather

Enter ICAO airport designator
Station Type Date Time Source
KIPT METAR 2021/09/23 22:54 UTC NOAA

KIPT 232254Z 25009KT 10SM OVC060 17/10 A2990 RMK AO2 SLP124 T01720100


Station Type Date Time Source
KIPT Decoded METAR 2021/09/23 22:54 UTC NOAA

WILLIAMSPORT-LYCOMING COUNTY, PA, United States (KIPT) 41-15N 076-55W 164M
Sep 23, 2021 - 06:54 PM EDT / 2021.09.23 2254 UTC
Wind: from the WSW (250 degrees) at 10 MPH (9 KT):0
Visibility: 10 mile(s):0
Sky conditions: overcast
Temperature: 63.0 F (17.2 C)
Dew Point: 50.0 F (10.0 C)
Relative Humidity: 62%
Pressure (altimeter): 29.9 in. Hg (1012 hPa)
ob: KIPT 232254Z 25009KT 10SM OVC060 17/10 A2990 RMK AO2 SLP124 T01720100
cycle: 23

Station Type Date Time Source
KIPT TAF 2021/09/23 22:48 UTC NOAA

TAF
AMD KIPT 232146Z 2322/2418 27014G21KT P6SM FEW029 BKN040 BKN050
FM240000 23007KT P6SM SCT040
FM241500 26010G17KT P6SM SCT050

Example: see airport list